sensor_id;sensor_type;location;lat;lon;timestamp;temperature;humidity
65707;SHT31;52423;43.512;5.220;2023-07-20T00:01:07;26.82;52.80
65707;SHT31;52423;43.512;5.220;2023-07-20T00:03:32;26.96;52.96
65707;SHT31;52423;43.512;5.220;2023-07-20T00:05:57;27.06;52.58
65707;SHT31;52423;43.512;5.220;2023-07-20T00:08:23;27.09;49.52
65707;SHT31;52423;43.512;5.220;2023-07-20T00:10:49;27.11;44.97
65707;SHT31;52423;43.512;5.220;2023-07-20T00:13:15;27.25;45.00
65707;SHT31;52423;43.512;5.220;2023-07-20T00:15:41;27.36;44.12
65707;SHT31;52423;43.512;5.220;2023-07-20T00:18:07;27.43;44.40
65707;SHT31;52423;43.512;5.220;2023-07-20T00:20:32;27.45;43.10
65707;SHT31;52423;43.512;5.220;2023-07-20T00:22:58;27.56;41.71
65707;SHT31;52423;43.512;5.220;2023-07-20T00:25:24;27.52;42.58
65707;SHT31;52423;43.512;5.220;2023-07-20T00:27:50;27.38;43.56
65707;SHT31;52423;43.512;5.220;2023-07-20T00:30:15;27.29;42.67
65707;SHT31;52423;43.512;5.220;2023-07-20T00:32:44;27.29;44.10
65707;SHT31;52423;43.512;5.220;2023-07-20T00:35:10;27.25;44.73
65707;SHT31;52423;43.512;5.220;2023-07-20T00:37:36;27.19;43.83
65707;SHT31;52423;43.512;5.220;2023-07-20T00:40:02;27.13;44.17
65707;SHT31;52423;43.512;5.220;2023-07-20T00:42:30;27.15;43.55
65707;SHT31;52423;43.512;5.220;2023-07-20T00:44:56;27.16;43.82
65707;SHT31;52423;43.512;5.220;2023-07-20T00:47:21;27.04;43.22
65707;SHT31;52423;43.512;5.220;2023-07-20T00:49:47;27.09;42.43
65707;SHT31;52423;43.512;5.220;2023-07-20T00:52:13;27.05;42.57
65707;SHT31;52423;43.512;5.220;2023-07-20T00:54:40;27.11;42.30
65707;SHT31;52423;43.512;5.220;2023-07-20T00:57:07;26.98;42.79
65707;SHT31;52423;43.512;5.220;2023-07-20T00:59:34;26.98;43.20
65707;SHT31;52423;43.512;5.220;2023-07-20T01:01:59;26.96;42.75
65707;SHT31;52423;43.512;5.220;2023-07-20T01:04:25;26.90;42.72
65707;SHT31;52423;43.512;5.220;2023-07-20T01:07:14;26.92;42.68
65707;SHT31;52423;43.512;5.220;2023-07-20T01:09:44;26.90;42.77
65707;SHT31;52423;43.512;5.220;2023-07-20T01:12:27;26.96;43.32
65707;SHT31;52423;43.512;5.220;2023-07-20T01:14:55;26.94;43.20
65707;SHT31;52423;43.512;5.220;2023-07-20T01:17:20;26.90;43.79
65707;SHT31;52423;43.512;5.220;2023-07-20T01:19:46;26.78;43.71
65707;SHT31;52423;43.512;5.220;2023-07-20T01:22:38;26.84;43.96
65707;SHT31;52423;43.512;5.220;2023-07-20T01:33:05;26.63;44.36
65707;SHT31;52423;43.512;5.220;2023-07-20T01:35:33;26.70;44.18
65707;SHT31;52423;43.512;5.220;2023-07-20T01:38:00;26.67;44.33
65707;SHT31;52423;43.512;5.220;2023-07-20T01:40:26;26.63;43.97
65707;SHT31;52423;43.512;5.220;2023-07-20T01:42:52;26.53;44.13
65707;SHT31;52423;43.512;5.220;2023-07-20T01:45:18;26.48;44.16
65707;SHT31;52423;43.512;5.220;2023-07-20T01:47:44;26.48;44.09
65707;SHT31;52423;43.512;5.220;2023-07-20T01:50:10;26.50;44.58
65707;SHT31;52423;43.512;5.220;2023-07-20T01:52:35;26.48;44.46
65707;SHT31;52423;43.512;5.220;2023-07-20T01:55:01;26.41;44.49
65707;SHT31;52423;43.512;5.220;2023-07-20T01:57:26;26.45;44.67
65707;SHT31;52423;43.512;5.220;2023-07-20T01:59:52;26.36;44.84
65707;SHT31;52423;43.512;5.220;2023-07-20T02:02:18;26.29;44.95
65707;SHT31;52423;43.512;5.220;2023-07-20T02:04:43;26.39;44.72
65707;SHT31;52423;43.512;5.220;2023-07-20T02:07:09;26.20;45.14
65707;SHT31;52423;43.512;5.220;2023-07-20T02:09:34;26.20;45.33
65707;SHT31;52423;43.512;5.220;2023-07-20T02:11:59;26.20;45.26
65707;SHT31;52423;43.512;5.220;2023-07-20T02:14:25;26.13;45.09
65707;SHT31;52423;43.512;5.220;2023-07-20T02:16:50;26.24;45.07
65707;SHT31;52423;43.512;5.220;2023-07-20T02:19:17;26.00;45.33
65707;SHT31;52423;43.512;5.220;2023-07-20T02:21:43;25.92;45.71
65707;SHT31;52423;43.512;5.220;2023-07-20T02:24:08;25.89;45.78
65707;SHT31;52423;43.512;5.220;2023-07-20T02:26:34;25.88;45.78
65707;SHT31;52423;43.512;5.220;2023-07-20T02:28:59;25.73;46.09
65707;SHT31;52423;43.512;5.220;2023-07-20T02:31:25;25.73;46.00
65707;SHT31;52423;43.512;5.220;2023-07-20T02:33:50;25.62;46.24
65707;SHT31;52423;43.512;5.220;2023-07-20T02:36:15;25.52;46.45
65707;SHT31;52423;43.512;5.220;2023-07-20T02:38:42;25.51;46.75
65707;SHT31;52423;43.512;5.220;2023-07-20T02:41:07;25.54;46.49
65707;SHT31;52423;43.512;5.220;2023-07-20T02:43:33;25.38;46.87
65707;SHT31;52423;43.512;5.220;2023-07-20T02:45:58;25.39;46.94
65707;SHT31;52423;43.512;5.220;2023-07-20T02:48:23;25.32;47.07
65707;SHT31;52423;43.512;5.220;2023-07-20T02:50:49;25.31;47.07
65707;SHT31;52423;43.512;5.220;2023-07-20T02:53:14;25.34;46.96
65707;SHT31;52423;43.512;5.220;2023-07-20T02:55:40;25.25;47.26
65707;SHT31;52423;43.512;5.220;2023-07-20T02:58:05;25.21;47.19
65707;SHT31;52423;43.512;5.220;2023-07-20T03:00:30;25.18;47.35
65707;SHT31;52423;43.512;5.220;2023-07-20T03:02:56;25.14;47.37
65707;SHT31;52423;43.512;5.220;2023-07-20T03:05:24;25.01;47.81
65707;SHT31;52423;43.512;5.220;2023-07-20T03:07:53;25.04;47.77
65707;SHT31;52423;43.512;5.220;2023-07-20T03:10:19;24.98;47.91
65707;SHT31;52423;43.512;5.220;2023-07-20T03:12:44;24.98;47.89
65707;SHT31;52423;43.512;5.220;2023-07-20T03:15:10;24.94;48.16
65707;SHT31;52423;43.512;5.220;2023-07-20T03:17:35;24.84;48.39
65707;SHT31;52423;43.512;5.220;2023-07-20T03:20:00;24.88;48.43
65707;SHT31;52423;43.512;5.220;2023-07-20T03:22:26;24.84;48.42
65707;SHT31;52423;43.512;5.220;2023-07-20T03:24:52;24.73;48.80
65707;SHT31;52423;43.512;5.220;2023-07-20T03:27:18;24.76;48.75
65707;SHT31;52423;43.512;5.220;2023-07-20T03:29:43;24.63;48.97
65707;SHT31;52423;43.512;5.220;2023-07-20T03:32:09;24.62;49.11
65707;SHT31;52423;43.512;5.220;2023-07-20T03:34:35;24.59;49.24
65707;SHT31;52423;43.512;5.220;2023-07-20T03:37:00;24.53;49.35
65707;SHT31;52423;43.512;5.220;2023-07-20T03:39:26;24.55;49.33
65707;SHT31;52423;43.512;5.220;2023-07-20T03:41:52;24.51;49.55
65707;SHT31;52423;43.512;5.220;2023-07-20T03:44:17;24.46;49.57
65707;SHT31;52423;43.512;5.220;2023-07-20T03:46:43;24.43;49.82
65707;SHT31;52423;43.512;5.220;2023-07-20T03:49:09;24.42;49.79
65707;SHT31;52423;43.512;5.220;2023-07-20T03:51:35;24.36;49.86
65707;SHT31;52423;43.512;5.220;2023-07-20T03:54:01;24.40;49.78
65707;SHT31;52423;43.512;5.220;2023-07-20T03:56:26;24.35;49.98
65707;SHT31;52423;43.512;5.220;2023-07-20T03:58:51;24.30;50.01
65707;SHT31;52423;43.512;5.220;2023-07-20T04:01:17;24.33;50.14
65707;SHT31;52423;43.512;5.220;2023-07-20T04:03:42;24.23;50.26
65707;SHT31;52423;43.512;5.220;2023-07-20T04:06:08;24.18;50.45
65707;SHT31;52423;43.512;5.220;2023-07-20T04:08:33;24.21;50.59
65707;SHT31;52423;43.512;5.220;2023-07-20T04:11:01;24.19;50.51
65707;SHT31;52423;43.512;5.220;2023-07-20T04:13:27;24.22;50.44
65707;SHT31;52423;43.512;5.220;2023-07-20T04:15:53;24.18;50.67
65707;SHT31;52423;43.512;5.220;2023-07-20T04:18:18;24.15;50.70
65707;SHT31;52423;43.512;5.220;2023-07-20T04:20:45;24.15;50.72
65707;SHT31;52423;43.512;5.220;2023-07-20T04:23:10;24.12;50.72
65707;SHT31;52423;43.512;5.220;2023-07-20T04:25:35;24.01;51.05
65707;SHT31;52423;43.512;5.220;2023-07-20T04:28:05;24.01;51.25
65707;SHT31;52423;43.512;5.220;2023-07-20T04:30:34;23.98;51.35
65707;SHT31;52423;43.512;5.220;2023-07-20T04:33:00;23.97;51.28
65707;SHT31;52423;43.512;5.220;2023-07-20T04:38:11;23.92;51.25
65707;SHT31;52423;43.512;5.220;2023-07-20T04:40:36;23.86;51.64
65707;SHT31;52423;43.512;5.220;2023-07-20T04:43:01;23.92;51.44
65707;SHT31;52423;43.512;5.220;2023-07-20T04:45:27;23.84;51.71
65707;SHT31;52423;43.512;5.220;2023-07-20T04:47:52;23.85;51.61
65707;SHT31;52423;43.512;5.220;2023-07-20T04:50:18;23.88;51.57
65707;SHT31;52423;43.512;5.220;2023-07-20T04:52:43;23.88;51.65
65707;SHT31;52423;43.512;5.220;2023-07-20T04:55:11;23.88;51.73
65707;SHT31;52423;43.512;5.220;2023-07-20T04:57:36;23.89;51.63
65707;SHT31;52423;43.512;5.220;2023-07-20T05:00:02;23.86;51.85
65707;SHT31;52423;43.512;5.220;2023-07-20T05:02:28;23.89;51.82
65707;SHT31;52423;43.512;5.220;2023-07-20T05:04:54;24.00;51.64
65707;SHT31;52423;43.512;5.220;2023-07-20T05:07:19;24.01;51.55
65707;SHT31;52423;43.512;5.220;2023-07-20T05:09:45;24.05;51.47
65707;SHT31;52423;43.512;5.220;2023-07-20T05:12:10;24.00;51.69
65707;SHT31;52423;43.512;5.220;2023-07-20T05:14:37;24.02;51.67
65707;SHT31;52423;43.512;5.220;2023-07-20T05:17:03;24.04;51.64
65707;SHT31;52423;43.512;5.220;2023-07-20T05:19:28;23.97;51.98
65707;SHT31;52423;43.512;5.220;2023-07-20T05:21:54;24.02;51.83
65707;SHT31;52423;43.512;5.220;2023-07-20T05:24:19;24.01;52.03
65707;SHT31;52423;43.512;5.220;2023-07-20T05:26:45;24.09;51.87
65707;SHT31;52423;43.512;5.220;2023-07-20T05:29:10;24.09;51.96
65707;SHT31;52423;43.512;5.220;2023-07-20T05:31:36;24.16;51.58
65707;SHT31;52423;43.512;5.220;2023-07-20T05:34:01;24.15;51.65
65707;SHT31;52423;43.512;5.220;2023-07-20T05:36:26;24.18;51.60
65707;SHT31;52423;43.512;5.220;2023-07-20T05:38:52;24.29;51.71
65707;SHT31;52423;43.512;5.220;2023-07-20T05:41:18;24.22;51.83
65707;SHT31;52423;43.512;5.220;2023-07-20T05:43:43;24.39;51.56
65707;SHT31;52423;43.512;5.220;2023-07-20T05:46:08;24.36;51.18
65707;SHT31;52423;43.512;5.220;2023-07-20T05:48:35;24.45;51.41
65707;SHT31;52423;43.512;5.220;2023-07-20T05:51:01;24.53;51.45
65707;SHT31;52423;43.512;5.220;2023-07-20T05:53:26;24.55;51.26
65707;SHT31;52423;43.512;5.220;2023-07-20T05:55:54;24.59;51.25
65707;SHT31;52423;43.512;5.220;2023-07-20T05:58:20;24.73;51.42
65707;SHT31;52423;43.512;5.220;2023-07-20T06:00:50;24.77;51.33
65707;SHT31;52423;43.512;5.220;2023-07-20T06:03:16;24.88;50.38
65707;SHT31;52423;43.512;5.220;2023-07-20T06:05:46;24.80;50.23
65707;SHT31;52423;43.512;5.220;2023-07-20T06:08:11;24.80;50.61
65707;SHT31;52423;43.512;5.220;2023-07-20T06:10:37;24.80;50.34
65707;SHT31;52423;43.512;5.220;2023-07-20T06:13:02;24.83;50.74
65707;SHT31;52423;43.512;5.220;2023-07-20T06:15:31;24.88;50.09
65707;SHT31;52423;43.512;5.220;2023-07-20T06:17:57;24.95;49.87
65707;SHT31;52423;43.512;5.220;2023-07-20T06:20:23;24.90;50.10
65707;SHT31;52423;43.512;5.220;2023-07-20T06:22:49;24.94;50.10
65707;SHT31;52423;43.512;5.220;2023-07-20T06:25:14;24.98;50.19
65707;SHT31;52423;43.512;5.220;2023-07-20T06:27:40;24.94;49.83
65707;SHT31;52423;43.512;5.220;2023-07-20T06:30:06;25.01;50.17
65707;SHT31;52423;43.512;5.220;2023-07-20T06:32:31;25.18;50.61
65707;SHT31;52423;43.512;5.220;2023-07-20T06:34:57;25.23;50.45
65707;SHT31;52423;43.512;5.220;2023-07-20T06:37:23;25.37;49.92
65707;SHT31;52423;43.512;5.220;2023-07-20T06:39:49;25.41;49.87
65707;SHT31;52423;43.512;5.220;2023-07-20T06:42:14;25.42;49.68
65707;SHT31;52423;43.512;5.220;2023-07-20T06:44:39;25.45;49.27
65707;SHT31;52423;43.512;5.220;2023-07-20T06:47:05;25.49;48.88
65707;SHT31;52423;43.512;5.220;2023-07-20T06:49:30;25.51;48.81
65707;SHT31;52423;43.512;5.220;2023-07-20T06:51:56;25.63;48.90
65707;SHT31;52423;43.512;5.220;2023-07-20T06:54:22;25.72;48.78
65707;SHT31;52423;43.512;5.220;2023-07-20T06:56:47;25.68;49.22
65707;SHT31;52423;43.512;5.220;2023-07-20T06:59:13;25.83;48.93
65707;SHT31;52423;43.512;5.220;2023-07-20T07:01:38;25.97;48.65
65707;SHT31;52423;43.512;5.220;2023-07-20T07:04:04;25.99;47.96
65707;SHT31;52423;43.512;5.220;2023-07-20T07:06:31;26.04;47.36
65707;SHT31;52423;43.512;5.220;2023-07-20T07:08:56;26.09;48.03
65707;SHT31;52423;43.512;5.220;2023-07-20T07:11:22;26.16;48.08
65707;SHT31;52423;43.512;5.220;2023-07-20T07:13:48;26.24;47.30
65707;SHT31;52423;43.512;5.220;2023-07-20T07:16:19;26.34;46.18
65707;SHT31;52423;43.512;5.220;2023-07-20T07:18:45;26.44;47.25
65707;SHT31;52423;43.512;5.220;2023-07-20T07:21:11;26.41;46.13
65707;SHT31;52423;43.512;5.220;2023-07-20T07:23:38;26.54;46.88
65707;SHT31;52423;43.512;5.220;2023-07-20T07:26:03;27.02;45.81
65707;SHT31;52423;43.512;5.220;2023-07-20T07:28:29;27.05;45.70
65707;SHT31;52423;43.512;5.220;2023-07-20T07:30:55;27.01;44.85
65707;SHT31;52423;43.512;5.220;2023-07-20T07:33:22;27.18;45.07
65707;SHT31;52423;43.512;5.220;2023-07-20T07:35:52;27.23;44.50
65707;SHT31;52423;43.512;5.220;2023-07-20T07:38:18;27.22;43.39
65707;SHT31;52423;43.512;5.220;2023-07-20T07:40:44;27.09;44.04
65707;SHT31;52423;43.512;5.220;2023-07-20T07:43:09;27.13;43.87
65707;SHT31;52423;43.512;5.220;2023-07-20T07:45:35;27.32;42.77
65707;SHT31;52423;43.512;5.220;2023-07-20T07:48:03;27.31;44.09
65707;SHT31;52423;43.512;5.220;2023-07-20T07:50:29;27.35;43.35
65707;SHT31;52423;43.512;5.220;2023-07-20T07:52:55;27.39;42.87
65707;SHT31;52423;43.512;5.220;2023-07-20T07:55:20;27.35;42.30
65707;SHT31;52423;43.512;5.220;2023-07-20T07:57:46;27.45;43.40
65707;SHT31;52423;43.512;5.220;2023-07-20T08:00:13;27.46;42.58
65707;SHT31;52423;43.512;5.220;2023-07-20T08:02:41;27.66;42.17
65707;SHT31;52423;43.512;5.220;2023-07-20T08:05:07;27.66;41.57
65707;SHT31;52423;43.512;5.220;2023-07-20T08:07:32;27.63;41.91
65707;SHT31;52423;43.512;5.220;2023-07-20T08:09:58;27.67;43.43
65707;SHT31;52423;43.512;5.220;2023-07-20T08:12:24;27.80;43.41
65707;SHT31;52423;43.512;5.220;2023-07-20T08:14:51;28.00;43.05
65707;SHT31;52423;43.512;5.220;2023-07-20T08:17:16;28.05;42.25
65707;SHT31;52423;43.512;5.220;2023-07-20T08:19:43;28.03;42.96
65707;SHT31;52423;43.512;5.220;2023-07-20T08:22:09;28.17;43.09
65707;SHT31;52423;43.512;5.220;2023-07-20T08:24:43;28.24;42.48
65707;SHT31;52423;43.512;5.220;2023-07-20T08:27:09;28.25;42.52
65707;SHT31;52423;43.512;5.220;2023-07-20T08:29:35;28.29;42.17
65707;SHT31;52423;43.512;5.220;2023-07-20T08:32:02;28.41;42.99
65707;SHT31;52423;43.512;5.220;2023-07-20T08:34:27;28.48;42.32
65707;SHT31;52423;43.512;5.220;2023-07-20T08:36:53;28.44;41.66
65707;SHT31;52423;43.512;5.220;2023-07-20T08:39:18;28.49;42.46
65707;SHT31;52423;43.512;5.220;2023-07-20T08:41:43;28.54;40.81
65707;SHT31;52423;43.512;5.220;2023-07-20T08:44:10;28.71;41.24
65707;SHT31;52423;43.512;5.220;2023-07-20T08:46:38;28.73;41.23
65707;SHT31;52423;43.512;5.220;2023-07-20T08:49:04;28.95;41.02
65707;SHT31;52423;43.512;5.220;2023-07-20T08:51:30;29.02;40.84
65707;SHT31;52423;43.512;5.220;2023-07-20T08:53:56;29.04;39.92
65707;SHT31;52423;43.512;5.220;2023-07-20T08:56:24;29.10;40.42
65707;SHT31;52423;43.512;5.220;2023-07-20T08:58:51;29.20;39.72
65707;SHT31;52423;43.512;5.220;2023-07-20T09:01:17;29.17;39.70
65707;SHT31;52423;43.512;5.220;2023-07-20T09:03:44;29.13;39.74
65707;SHT31;52423;43.512;5.220;2023-07-20T09:06:10;29.13;39.67
65707;SHT31;52423;43.512;5.220;2023-07-20T09:08:40;29.22;39.84
65707;SHT31;52423;43.512;5.220;2023-07-20T09:11:06;29.33;39.50
65707;SHT31;52423;43.512;5.220;2023-07-20T09:13:33;29.51;38.76
65707;SHT31;52423;43.512;5.220;2023-07-20T09:15:59;29.55;38.82
65707;SHT31;52423;43.512;5.220;2023-07-20T09:18:29;29.63;38.31
65707;SHT31;52423;43.512;5.220;2023-07-20T09:21:06;29.85;38.85
65707;SHT31;52423;43.512;5.220;2023-07-20T09:23:36;29.91;38.59
65707;SHT31;52423;43.512;5.220;2023-07-20T09:26:14;30.13;38.39
65707;SHT31;52423;43.512;5.220;2023-07-20T09:28:58;30.33;37.57
65707;SHT31;52423;43.512;5.220;2023-07-20T09:31:24;30.39;38.33
65707;SHT31;52423;43.512;5.220;2023-07-20T09:33:52;30.33;37.07
65707;SHT31;52423;43.512;5.220;2023-07-20T09:36:18;30.56;37.23
65707;SHT31;52423;43.512;5.220;2023-07-20T09:38:43;30.63;36.01
65707;SHT31;52423;43.512;5.220;2023-07-20T09:41:14;30.73;36.51
65707;SHT31;52423;43.512;5.220;2023-07-20T09:43:40;30.57;37.15
65707;SHT31;52423;43.512;5.220;2023-07-20T09:46:06;30.67;37.19
65707;SHT31;52423;43.512;5.220;2023-07-20T09:48:32;30.74;37.28
65707;SHT31;52423;43.512;5.220;2023-07-20T09:50:57;30.80;36.90
65707;SHT31;52423;43.512;5.220;2023-07-20T09:53:24;30.79;37.03
65707;SHT31;52423;43.512;5.220;2023-07-20T09:55:52;30.81;37.64
65707;SHT31;52423;43.512;5.220;2023-07-20T09:58:17;30.97;35.77
65707;SHT31;52423;43.512;5.220;2023-07-20T10:00:44;31.00;37.19
65707;SHT31;52423;43.512;5.220;2023-07-20T10:03:14;31.11;36.21
65707;SHT31;52423;43.512;5.220;2023-07-20T10:05:44;31.28;35.89
65707;SHT31;52423;43.512;5.220;2023-07-20T10:08:12;31.20;35.67
65707;SHT31;52423;43.512;5.220;2023-07-20T10:10:40;31.25;35.49
65707;SHT31;52423;43.512;5.220;2023-07-20T10:13:10;31.24;35.33
65707;SHT31;52423;43.512;5.220;2023-07-20T10:15:54;31.18;35.05
65707;SHT31;52423;43.512;5.220;2023-07-20T10:20:49;31.44;35.07
65707;SHT31;52423;43.512;5.220;2023-07-20T10:23:17;31.52;35.40
65707;SHT31;52423;43.512;5.220;2023-07-20T10:25:42;31.61;33.78
65707;SHT31;52423;43.512;5.220;2023-07-20T10:28:09;31.59;33.03
65707;SHT31;52423;43.512;5.220;2023-07-20T10:30:36;31.63;33.32
65707;SHT31;52423;43.512;5.220;2023-07-20T10:33:03;31.63;34.05
65707;SHT31;52423;43.512;5.220;2023-07-20T10:35:29;31.90;33.88
65707;SHT31;52423;43.512;5.220;2023-07-20T10:38:03;31.76;34.02
65707;SHT31;52423;43.512;5.220;2023-07-20T10:43:06;31.83;34.10
65707;SHT31;52423;43.512;5.220;2023-07-20T10:45:41;32.08;34.31
65707;SHT31;52423;43.512;5.220;2023-07-20T10:50:40;32.14;32.93
65707;SHT31;52423;43.512;5.220;2023-07-20T10:53:14;32.45;32.41
65707;SHT31;52423;43.512;5.220;2023-07-20T10:55:40;32.41;33.30
65707;SHT31;52423;43.512;5.220;2023-07-20T10:58:11;32.54;33.53
65707;SHT31;52423;43.512;5.220;2023-07-20T11:00:37;32.68;33.65
65707;SHT31;52423;43.512;5.220;2023-07-20T11:03:04;32.65;32.35
65707;SHT31;52423;43.512;5.220;2023-07-20T11:05:33;32.74;32.24
65707;SHT31;52423;43.512;5.220;2023-07-20T11:08:10;32.81;31.64
65707;SHT31;52423;43.512;5.220;2023-07-20T11:10:36;32.77;30.98
65707;SHT31;52423;43.512;5.220;2023-07-20T11:13:23;32.82;32.08
65707;SHT31;52423;43.512;5.220;2023-07-20T11:18:25;33.12;31.52
65707;SHT31;52423;43.512;5.220;2023-07-20T11:20:51;33.22;30.25
65707;SHT31;52423;43.512;5.220;2023-07-20T11:23:19;33.59;30.16
65707;SHT31;52423;43.512;5.220;2023-07-20T11:25:45;33.73;30.42
65707;SHT31;52423;43.512;5.220;2023-07-20T11:28:11;33.70;30.29
65707;SHT31;52423;43.512;5.220;2023-07-20T11:30:40;33.77;30.56
65707;SHT31;52423;43.512;5.220;2023-07-20T11:33:08;33.77;29.28
65707;SHT31;52423;43.512;5.220;2023-07-20T11:35:42;33.86;30.83
65707;SHT31;52423;43.512;5.220;2023-07-20T11:38:08;33.81;28.90
65707;SHT31;52423;43.512;5.220;2023-07-20T11:40:33;33.81;28.93
65707;SHT31;52423;43.512;5.220;2023-07-20T11:42:59;33.73;28.10
65707;SHT31;52423;43.512;5.220;2023-07-20T11:45:25;33.66;28.59
65707;SHT31;52423;43.512;5.220;2023-07-20T11:47:50;33.65;28.70
65707;SHT31;52423;43.512;5.220;2023-07-20T11:50:16;33.90;27.80
65707;SHT31;52423;43.512;5.220;2023-07-20T11:52:42;33.59;27.07
65707;SHT31;52423;43.512;5.220;2023-07-20T11:55:07;33.56;27.51
65707;SHT31;52423;43.512;5.220;2023-07-20T11:57:33;33.63;28.59
65707;SHT31;52423;43.512;5.220;2023-07-20T12:00:03;33.93;27.31
65707;SHT31;52423;43.512;5.220;2023-07-20T12:02:37;33.92;26.84
65707;SHT31;52423;43.512;5.220;2023-07-20T12:05:04;33.81;27.33
65707;SHT31;52423;43.512;5.220;2023-07-20T12:07:35;33.81;26.49
65707;SHT31;52423;43.512;5.220;2023-07-20T12:10:09;34.13;26.62
65707;SHT31;52423;43.512;5.220;2023-07-20T12:12:38;34.11;27.64
65707;SHT31;52423;43.512;5.220;2023-07-20T12:15:17;34.11;25.19
65707;SHT31;52423;43.512;5.220;2023-07-20T12:17:45;34.13;27.37
65707;SHT31;52423;43.512;5.220;2023-07-20T12:20:11;34.16;27.34
65707;SHT31;52423;43.512;5.220;2023-07-20T12:22:40;34.31;27.62
65707;SHT31;52423;43.512;5.220;2023-07-20T12:25:07;34.28;26.16
65707;SHT31;52423;43.512;5.220;2023-07-20T12:27:36;34.45;26.40
65707;SHT31;52423;43.512;5.220;2023-07-20T12:30:02;34.31;23.99
65707;SHT31;52423;43.512;5.220;2023-07-20T12:32:29;34.37;22.81
65707;SHT31;52423;43.512;5.220;2023-07-20T12:34:55;34.44;25.56
65707;SHT31;52423;43.512;5.220;2023-07-20T12:37:20;34.50;25.05
65707;SHT31;52423;43.512;5.220;2023-07-20T12:39:45;34.25;24.86
65707;SHT31;52423;43.512;5.220;2023-07-20T12:42:12;34.21;25.76
65707;SHT31;52423;43.512;5.220;2023-07-20T12:44:40;34.30;24.48
65707;SHT31;52423;43.512;5.220;2023-07-20T12:47:05;34.31;23.80
65707;SHT31;52423;43.512;5.220;2023-07-20T12:49:31;34.55;23.69
65707;SHT31;52423;43.512;5.220;2023-07-20T12:51:56;34.48;23.76
65707;SHT31;52423;43.512;5.220;2023-07-20T12:54:22;34.57;24.30
65707;SHT31;52423;43.512;5.220;2023-07-20T12:56:47;34.50;23.65
65707;SHT31;52423;43.512;5.220;2023-07-20T12:59:12;34.61;22.89
65707;SHT31;52423;43.512;5.220;2023-07-20T13:01:38;34.68;25.03
65707;SHT31;52423;43.512;5.220;2023-07-20T13:04:06;34.40;26.24
65707;SHT31;52423;43.512;5.220;2023-07-20T13:06:34;34.38;25.44
65707;SHT31;52423;43.512;5.220;2023-07-20T13:09:00;34.38;25.91
65707;SHT31;52423;43.512;5.220;2023-07-20T13:11:25;34.54;25.23
65707;SHT31;52423;43.512;5.220;2023-07-20T13:13:51;34.23;24.25
65707;SHT31;52423;43.512;5.220;2023-07-20T13:16:17;34.40;23.88
65707;SHT31;52423;43.512;5.220;2023-07-20T13:18:42;34.55;25.17
65707;SHT31;52423;43.512;5.220;2023-07-20T13:21:07;34.51;25.86
65707;SHT31;52423;43.512;5.220;2023-07-20T13:23:36;34.62;26.11
65707;SHT31;52423;43.512;5.220;2023-07-20T13:26:04;34.74;24.59
65707;SHT31;52423;43.512;5.220;2023-07-20T13:28:29;34.75;23.68
65707;SHT31;52423;43.512;5.220;2023-07-20T13:30:55;34.67;25.43
65707;SHT31;52423;43.512;5.220;2023-07-20T13:33:20;34.81;26.72
65707;SHT31;52423;43.512;5.220;2023-07-20T13:35:46;35.05;26.47
65707;SHT31;52423;43.512;5.220;2023-07-20T13:38:12;34.87;25.01
65707;SHT31;52423;43.512;5.220;2023-07-20T13:40:37;34.81;24.75
65707;SHT31;52423;43.512;5.220;2023-07-20T13:43:03;34.87;24.82
65707;SHT31;52423;43.512;5.220;2023-07-20T13:45:28;34.92;23.29
65707;SHT31;52423;43.512;5.220;2023-07-20T13:47:53;34.41;25.01
65707;SHT31;52423;43.512;5.220;2023-07-20T13:50:19;34.40;26.05
65707;SHT31;52423;43.512;5.220;2023-07-20T13:52:44;34.50;25.29
65707;SHT31;52423;43.512;5.220;2023-07-20T13:55:10;34.50;24.82
65707;SHT31;52423;43.512;5.220;2023-07-20T13:57:35;34.69;25.29
65707;SHT31;52423;43.512;5.220;2023-07-20T14:00:01;34.72;26.13
65707;SHT31;52423;43.512;5.220;2023-07-20T14:02:33;35.00;25.40
65707;SHT31;52423;43.512;5.220;2023-07-20T14:04:58;35.03;25.73
65707;SHT31;52423;43.512;5.220;2023-07-20T14:07:24;35.02;25.41
65707;SHT31;52423;43.512;5.220;2023-07-20T14:09:50;35.08;24.67
65707;SHT31;52423;43.512;5.220;2023-07-20T14:12:15;35.08;23.57
65707;SHT31;52423;43.512;5.220;2023-07-20T14:14:41;34.95;24.55
65707;SHT31;52423;43.512;5.220;2023-07-20T14:17:07;34.87;24.11
65707;SHT31;52423;43.512;5.220;2023-07-20T14:19:32;34.85;23.80
65707;SHT31;52423;43.512;5.220;2023-07-20T14:21:58;34.85;24.32
65707;SHT31;52423;43.512;5.220;2023-07-20T14:24:25;34.79;25.67
65707;SHT31;52423;43.512;5.220;2023-07-20T14:26:51;34.94;22.65
65707;SHT31;52423;43.512;5.220;2023-07-20T14:29:16;34.91;23.44
65707;SHT31;52423;43.512;5.220;2023-07-20T14:31:43;34.62;22.53
65707;SHT31;52423;43.512;5.220;2023-07-20T14:34:09;34.78;22.98
65707;SHT31;52423;43.512;5.220;2023-07-20T14:36:34;34.65;22.29
65707;SHT31;52423;43.512;5.220;2023-07-20T14:39:00;34.75;22.65
65707;SHT31;52423;43.512;5.220;2023-07-20T14:41:25;34.78;21.50
65707;SHT31;52423;43.512;5.220;2023-07-20T14:43:51;34.61;21.28
65707;SHT31;52423;43.512;5.220;2023-07-20T14:46:17;34.81;21.56
65707;SHT31;52423;43.512;5.220;2023-07-20T14:48:42;34.94;21.08
65707;SHT31;52423;43.512;5.220;2023-07-20T14:51:07;35.00;22.83
65707;SHT31;52423;43.512;5.220;2023-07-20T14:53:33;34.87;22.90
65707;SHT31;52423;43.512;5.220;2023-07-20T14:56:02;34.87;22.13
65707;SHT31;52423;43.512;5.220;2023-07-20T14:58:29;34.95;22.79
65707;SHT31;52423;43.512;5.220;2023-07-20T15:00:54;34.94;22.46
65707;SHT31;52423;43.512;5.220;2023-07-20T15:03:19;34.84;23.04
65707;SHT31;52423;43.512;5.220;2023-07-20T15:05:45;34.95;21.39
65707;SHT31;52423;43.512;5.220;2023-07-20T15:08:10;34.88;22.16
65707;SHT31;52423;43.512;5.220;2023-07-20T15:10:36;34.67;23.31
65707;SHT31;52423;43.512;5.220;2023-07-20T15:13:01;34.78;22.91
65707;SHT31;52423;43.512;5.220;2023-07-20T15:15:27;34.79;23.27
65707;SHT31;52423;43.512;5.220;2023-07-20T15:17:53;34.81;22.86
65707;SHT31;52423;43.512;5.220;2023-07-20T15:20:19;34.78;22.37
65707;SHT31;52423;43.512;5.220;2023-07-20T15:22:45;34.68;21.15
65707;SHT31;52423;43.512;5.220;2023-07-20T15:25:10;34.62;22.18
65707;SHT31;52423;43.512;5.220;2023-07-20T15:27:37;34.67;22.60
65707;SHT31;52423;43.512;5.220;2023-07-20T15:30:02;34.74;22.67
65707;SHT31;52423;43.512;5.220;2023-07-20T15:32:28;34.62;22.34
65707;SHT31;52423;43.512;5.220;2023-07-20T15:34:53;34.59;21.56
65707;SHT31;52423;43.512;5.220;2023-07-20T15:37:19;34.79;22.27
65707;SHT31;52423;43.512;5.220;2023-07-20T15:39:48;34.81;22.00
65707;SHT31;52423;43.512;5.220;2023-07-20T15:42:14;34.57;20.63
65707;SHT31;52423;43.512;5.220;2023-07-20T15:44:39;34.57;21.73
65707;SHT31;52423;43.512;5.220;2023-07-20T15:47:05;34.54;22.30